Terminal Aerodrome Forecast
Issued by NWS

Home | Current Version | Previous Version | Text Only | Print | Product List | Glossary On
Versions: 1 2 3 4 5 6 7 8 9 10 11 12 13 14 15
000
FTUS43 KICT 231727
TAFHUT
TAF
KHUT 231727Z 2318/2418 33020G27KT P6SM BKN025 OVC035
     FM232100 33020G27KT 5SM -RASN SCT015 OVC025
      TEMPO 2322/2402 3SM -SN OVC015
     FM240300 34020G28KT P6SM OVC015=

USA.gov is the U.S. government's official web portal to all federal, state and local government web resources and services.